Provo, Kentucky
Current Conditions -  °F | °C
As of 3:53 AM on Thursday 29 Jan 2015 (Local Time) from KBWG Reporting Station
Overcast Overcast  
Wind Chill: 40°   Ceiling: 9500
Heat Index: 47°   Visibility: 10mi
Dew Point: 26°   Wind: 17mph
Humidity: 44%   Direction: 190°S
Pressure: 30.02"   Gusts: NA
Location:  37.23°N, 86.83°W
Report Text: KBWG 290953Z AUTO 19015KT 10SM OVC095 08/M03 A3002 RMK AO2 SLP164 T00831033
Loading
Personal Weather Stations






























Interactive Weather Map New forecast layout! Learn more

10-Day Weather Forecast

Advertisements
Track Severe Weather on mobile